Time;durP1;ratioP1;P1;durP2;ratioP2;P2;SDS_P1;SDS_P2;PMS_P1;PMS_P2;Temp;Humidity;BMP_temperature;BMP_pressure;BME280_temperature;BME280_humidity;BME280_pressure;Samples;Min_cycle;Max_cycle;Signal;HPM_P1;HPM_P2
2022/09/13 00:00:45;;;;;;;2.67;2.47;;;;;;;;;;5009254;28;20964;-61
2022/09/13 00:03:12;;;;;;;2.60;2.47;;;;;;;;;;5012399;28;20212;-62
2022/09/13 00:05:40;;;;;;;2.78;2.58;;;;;;;;;;5008319;28;20592;-61
2022/09/13 00:08:09;;;;;;;3.22;3.03;;;;;;;;;;5019838;28;20232;-62
2022/09/13 00:10:37;;;;;;;2.70;2.50;;;;;;;;;;5022182;28;20211;-62
2022/09/13 00:13:04;;;;;;;2.45;2.35;;;;;;;;;;5016687;28;20295;-62
2022/09/13 00:15:31;;;;;;;2.53;2.33;;;;;;;;;;5016340;28;20239;-62
2022/09/13 00:17:58;;;;;;;2.38;2.28;;;;;;;;;;5008727;28;20710;-63
2022/09/13 00:20:26;;;;;;;2.50;2.40;;;;;;;;;;5024233;28;20200;-62
2022/09/13 00:22:53;;;;;;;2.50;2.40;;;;;;;;;;5023480;28;20295;-63
2022/09/13 00:25:21;;;;;;;2.72;2.55;;;;;;;;;;5019768;28;20236;-62
2022/09/13 00:27:48;;;;;;;3.15;2.20;;;;;;;;;;5021866;28;20232;-63
2022/09/13 00:30:16;;;;;;;2.60;2.40;;;;;;;;;;5011188;28;20227;-62
2022/09/13 00:32:43;;;;;;;2.20;2.10;;;;;;;;;;5025781;28;20662;-62
2022/09/13 00:35:10;;;;;;;2.65;2.47;;;;;;;;;;5014430;28;20213;-63
2022/09/13 00:37:38;;;;;;;2.30;2.20;;;;;;;;;;5007849;28;20578;-63
2022/09/13 00:40:06;;;;;;;2.42;2.33;;;;;;;;;;5020587;28;20227;-62
2022/09/13 00:42:34;;;;;;;2.38;2.28;;;;;;;;;;5017432;28;20197;-63
2022/09/13 00:45:02;;;;;;;2.70;2.60;;;;;;;;;;5024659;28;20205;-62
2022/09/13 00:47:34;;;;;;;2.92;2.72;;;;;;;;;;5011465;28;20776;-62
2022/09/13 00:50:03;;;;;;;3.10;2.80;;;;;;;;;;5012777;28;20255;-62
2022/09/13 00:52:31;;;;;;;2.90;2.70;;;;;;;;;;5008259;28;20205;-63
2022/09/13 00:55:00;;;;;;;2.25;2.15;;;;;;;;;;5011120;28;20201;-62
2022/09/13 00:57:28;;;;;;;3.50;2.92;;;;;;;;;;5009587;28;20217;-62
2022/09/13 00:59:59;;;;;;;2.33;2.22;;;;;;;;;;5014113;28;20229;-62
2022/09/13 01:02:27;;;;;;;2.63;2.45;;;;;;;;;;5008334;28;20705;-63
2022/09/13 01:04:54;;;;;;;2.75;2.55;;;;;;;;;;5016742;28;20724;-62
2022/09/13 01:07:21;;;;;;;3.17;2.80;;;;;;;;;;5019571;28;20228;-62
2022/09/13 01:09:49;;;;;;;2.45;2.33;;;;;;;;;;5019662;28;20259;-63
2022/09/13 01:12:20;;;;;;;2.60;2.40;;;;;;;;;;5011040;28;20201;-62
2022/09/13 01:14:48;;;;;;;2.80;2.60;;;;;;;;;;5019050;28;20230;-63
2022/09/13 01:17:16;;;;;;;2.80;2.60;;;;;;;;;;5010834;28;20201;-63
2022/09/13 01:19:43;;;;;;;2.47;2.38;;;;;;;;;;5012140;28;20202;-62
2022/09/13 01:22:38;;;;;;;2.30;2.20;;;;;;;;;;5023010;28;20212;-62
2022/09/13 01:25:23;;;;;;;2.70;2.50;;;;;;;;;;5013866;28;20244;-62
2022/09/13 01:27:59;;;;;;;2.72;2.55;;;;;;;;;;5019833;28;20239;-62
2022/09/13 01:30:31;;;;;;;3.33;2.83;;;;;;;;;;5012817;28;20204;-63
2022/09/13 01:33:05;;;;;;;4.35;2.45;;;;;;;;;;5028643;28;20211;-62
2022/09/13 01:35:38;;;;;;;3.15;2.50;;;;;;;;;;5021658;28;20227;-62
2022/09/13 01:38:11;;;;;;;2.63;2.42;;;;;;;;;;5016493;28;20209;-62
2022/09/13 01:40:48;;;;;;;7.60;3.42;;;;;;;;;;5013025;28;20212;-62
2022/09/13 01:43:21;;;;;;;2.55;2.45;;;;;;;;;;5015419;28;20215;-63
2022/09/13 01:45:53;;;;;;;2.30;2.15;;;;;;;;;;5027637;28;20200;-62
2022/09/13 01:48:23;;;;;;;2.10;2.00;;;;;;;;;;5017613;28;20232;-62
2022/09/13 01:50:53;;;;;;;4.00;2.53;;;;;;;;;;5015843;28;20917;-62
2022/09/13 01:53:26;;;;;;;4.68;2.75;;;;;;;;;;5011296;28;20216;-64
2022/09/13 01:55:58;;;;;;;8.25;2.67;;;;;;;;;;5024759;28;20208;-62
2022/09/13 01:58:29;;;;;;;2.97;2.77;;;;;;;;;;5010659;28;20208;-62
2022/09/13 02:01:02;;;;;;;4.38;2.53;;;;;;;;;;5013905;28;20228;-62
2022/09/13 02:03:32;;;;;;;2.77;2.57;;;;;;;;;;5025032;28;20216;-62
2022/09/13 02:06:01;;;;;;;2.78;2.65;;;;;;;;;;5025453;28;20231;-62
2022/09/13 02:08:33;;;;;;;3.10;2.90;;;;;;;;;;5013276;28;20229;-63
2022/09/13 02:11:04;;;;;;;2.40;2.30;;;;;;;;;;5020288;28;20209;-63
2022/09/13 02:13:35;;;;;;;2.85;2.65;;;;;;;;;;5010933;28;20224;-62
2022/09/13 02:16:08;;;;;;;2.53;2.33;;;;;;;;;;5023244;28;20586;-62
2022/09/13 02:18:36;;;;;;;3.40;2.72;;;;;;;;;;5022000;28;20243;-63
2022/09/13 02:21:06;;;;;;;2.45;2.35;;;;;;;;;;5024063;28;20227;-62
2022/09/13 02:23:36;;;;;;;3.00;2.80;;;;;;;;;;5019032;28;20593;-63
2022/09/13 02:26:05;;;;;;;4.30;2.55;;;;;;;;;;5014737;28;20212;-63
2022/09/13 02:28:33;;;;;;;6.28;3.05;;;;;;;;;;5010752;28;20243;-62
2022/09/13 02:31:01;;;;;;;2.67;2.58;;;;;;;;;;5021379;28;20212;-63
2022/09/13 02:33:33;;;;;;;3.00;2.90;;;;;;;;;;5011013;28;20205;-63
2022/09/13 02:36:02;;;;;;;3.03;2.75;;;;;;;;;;5015349;28;20210;-63
2022/09/13 02:38:31;;;;;;;3.72;3.00;;;;;;;;;;5018955;28;20204;-62
2022/09/13 02:41:00;;;;;;;4.25;3.30;;;;;;;;;;5025447;28;20325;-63
2022/09/13 02:43:30;;;;;;;2.85;2.65;;;;;;;;;;5018668;28;20254;-62
2022/09/13 02:46:01;;;;;;;2.80;2.60;;;;;;;;;;5020598;28;20219;-62
2022/09/13 02:48:32;;;;;;;2.67;2.47;;;;;;;;;;5022925;28;20281;-62
2022/09/13 02:51:03;;;;;;;2.87;2.67;;;;;;;;;;5020051;28;20200;-62
2022/09/13 02:53:34;;;;;;;3.10;2.90;;;;;;;;;;5023323;28;20295;-62
2022/09/13 02:56:09;;;;;;;3.35;3.08;;;;;;;;;;5020088;28;20210;-62
2022/09/13 02:58:43;;;;;;;2.87;2.67;;;;;;;;;;5022722;28;20200;-63
2022/09/13 03:01:10;;;;;;;3.10;2.90;;;;;;;;;;5014803;28;20583;-62
2022/09/13 03:03:37;;;;;;;3.17;2.88;;;;;;;;;;5009132;28;20208;-63
2022/09/13 03:06:06;;;;;;;3.30;2.67;;;;;;;;;;5009465;28;20217;-62
2022/09/13 03:08:34;;;;;;;2.90;2.70;;;;;;;;;;5008994;28;20237;-63
2022/09/13 03:11:07;;;;;;;2.80;2.60;;;;;;;;;;5018846;28;20205;-62
2022/09/13 03:13:44;;;;;;;4.55;2.78;;;;;;;;;;5017393;28;20300;-62
2022/09/13 03:16:20;;;;;;;2.63;2.53;;;;;;;;;;5010598;28;20205;-63
2022/09/13 03:18:53;;;;;;;3.77;2.80;;;;;;;;;;5008444;28;20215;-63
2022/09/13 03:21:29;;;;;;;3.42;2.65;;;;;;;;;;5009407;28;20296;-63
2022/09/13 03:24:00;;;;;;;3.17;2.60;;;;;;;;;;5023242;28;20228;-62
2022/09/13 03:26:34;;;;;;;2.17;2.08;;;;;;;;;;5020064;28;20215;-63
2022/09/13 03:29:07;;;;;;;2.47;2.27;;;;;;;;;;5010416;28;20233;-62
2022/09/13 03:31:35;;;;;;;2.53;2.43;;;;;;;;;;5019978;28;20203;-62
2022/09/13 03:34:07;;;;;;;2.83;2.70;;;;;;;;;;5025051;28;20204;-62
2022/09/13 03:36:37;;;;;;;2.70;2.33;;;;;;;;;;5018958;28;20309;-62
2022/09/13 03:39:10;;;;;;;2.80;2.60;;;;;;;;;;5009749;28;20219;-62
2022/09/13 03:41:39;;;;;;;2.70;2.50;;;;;;;;;;5015578;28;20204;-62
2022/09/13 03:44:08;;;;;;;2.30;2.10;;;;;;;;;;5014750;28;20209;-63
2022/09/13 03:46:36;;;;;;;2.87;2.67;;;;;;;;;;5024460;28;20287;-62
2022/09/13 03:49:05;;;;;;;2.63;2.53;;;;;;;;;;5026229;28;20220;-62
2022/09/13 03:51:33;;;;;;;2.75;2.55;;;;;;;;;;5025229;28;20211;-63
2022/09/13 03:54:03;;;;;;;2.73;2.53;;;;;;;;;;5023541;28;20796;-62
2022/09/13 03:56:30;;;;;;;2.50;2.40;;;;;;;;;;5018518;28;20248;-62
2022/09/13 03:58:57;;;;;;;2.50;2.30;;;;;;;;;;5025015;28;20679;-61
2022/09/13 04:01:25;;;;;;;2.50;2.28;;;;;;;;;;5011530;28;20201;-62
2022/09/13 04:03:52;;;;;;;2.33;2.17;;;;;;;;;;5014045;28;20220;-62
2022/09/13 04:06:19;;;;;;;2.67;2.55;;;;;;;;;;5008417;28;20549;-62
2022/09/13 04:08:46;;;;;;;2.80;2.53;;;;;;;;;;5024286;28;20227;-62
2022/09/13 04:11:14;;;;;;;3.43;2.67;;;;;;;;;;5012298;28;20208;-62
2022/09/13 04:13:41;;;;;;;2.65;2.55;;;;;;;;;;5016762;28;20204;-61
2022/09/13 04:16:09;;;;;;;2.53;2.43;;;;;;;;;;5018905;28;20201;-62
2022/09/13 04:18:36;;;;;;;2.35;2.25;;;;;;;;;;5021943;28;20228;-62
2022/09/13 04:21:04;;;;;;;2.57;2.47;;;;;;;;;;5023054;28;20208;-62
2022/09/13 04:23:31;;;;;;;3.10;2.27;;;;;;;;;;5016951;28;20215;-62
2022/09/13 04:26:01;;;;;;;2.90;2.45;;;;;;;;;;5017419;28;20282;-63
2022/09/13 04:28:30;;;;;;;2.70;2.55;;;;;;;;;;5022904;28;20298;-62
2022/09/13 04:30:57;;;;;;;2.47;2.37;;;;;;;;;;5023502;28;20208;-62
2022/09/13 04:33:24;;;;;;;2.35;2.25;;;;;;;;;;5008448;28;20600;-63
2022/09/13 04:35:55;;;;;;;2.50;1.90;;;;;;;;;;5011143;28;20216;-62
2022/09/13 04:38:23;;;;;;;2.45;2.35;;;;;;;;;;5018444;28;20208;-62
2022/09/13 04:40:53;;;;;;;3.13;2.88;;;;;;;;;;5012259;28;20209;-63
2022/09/13 04:43:20;;;;;;;2.50;2.30;;;;;;;;;;5012899;28;20266;-63
2022/09/13 04:45:48;;;;;;;2.80;2.60;;;;;;;;;;5014324;28;20216;-62
2022/09/13 04:48:16;;;;;;;2.40;2.20;;;;;;;;;;5015886;28;20396;-62
2022/09/13 04:50:43;;;;;;;2.30;2.13;;;;;;;;;;5029187;28;20228;-62
2022/09/13 04:53:10;;;;;;;5.88;2.58;;;;;;;;;;5017836;28;20668;-62
2022/09/13 04:55:38;;;;;;;4.20;3.53;;;;;;;;;;5012313;28;20686;-63
2022/09/13 04:58:05;;;;;;;2.47;2.27;;;;;;;;;;5013936;28;20684;-62
2022/09/13 05:00:32;;;;;;;2.85;2.63;;;;;;;;;;5015798;28;20690;-62
2022/09/13 05:03:00;;;;;;;5.57;2.67;;;;;;;;;;5015750;28;20211;-62
2022/09/13 05:05:29;;;;;;;3.27;2.60;;;;;;;;;;5022211;28;20216;-62
2022/09/13 05:07:56;;;;;;;3.45;2.97;;;;;;;;;;5018529;28;20283;-62
2022/09/13 05:10:24;;;;;;;3.55;3.08;;;;;;;;;;5028587;28;20668;-62
2022/09/13 05:12:51;;;;;;;2.45;2.35;;;;;;;;;;5012141;28;20294;-62
2022/09/13 05:15:18;;;;;;;2.80;2.60;;;;;;;;;;5010535;28;20572;-62
2022/09/13 05:17:45;;;;;;;2.60;2.40;;;;;;;;;;5012180;28;20228;-62
2022/09/13 05:20:13;;;;;;;2.53;2.43;;;;;;;;;;5011281;28;20664;-62
2022/09/13 05:22:40;;;;;;;3.83;2.83;;;;;;;;;;5020192;28;20204;-63
2022/09/13 05:25:08;;;;;;;3.22;2.92;;;;;;;;;;5011946;28;20241;-62
2022/09/13 05:27:35;;;;;;;3.07;2.80;;;;;;;;;;5011650;28;20231;-62
2022/09/13 05:30:02;;;;;;;4.90;3.00;;;;;;;;;;5018493;28;20212;-62
2022/09/13 05:32:31;;;;;;;3.90;2.70;;;;;;;;;;5012245;28;20660;-62
2022/09/13 05:34:58;;;;;;;2.55;2.42;;;;;;;;;;5027687;28;20201;-63
2022/09/13 05:37:26;;;;;;;3.70;2.55;;;;;;;;;;5011606;28;20220;-62
2022/09/13 05:39:53;;;;;;;2.70;2.50;;;;;;;;;;5011665;28;20205;-62
2022/09/13 05:42:20;;;;;;;2.70;2.50;;;;;;;;;;5011238;28;20213;-62
2022/09/13 05:44:48;;;;;;;4.07;2.67;;;;;;;;;;5027271;28;20666;-63
2022/09/13 05:47:15;;;;;;;2.50;2.40;;;;;;;;;;5018292;28;20205;-62
2022/09/13 05:49:42;;;;;;;3.28;2.97;;;;;;;;;;5024859;28;20231;-62
2022/09/13 05:52:09;;;;;;;2.73;2.53;;;;;;;;;;5029858;28;20219;-62
2022/09/13 05:54:37;;;;;;;4.05;2.78;;;;;;;;;;5015447;28;20213;-62
2022/09/13 05:57:04;;;;;;;2.90;2.70;;;;;;;;;;5009898;28;20213;-62
2022/09/13 05:59:31;;;;;;;2.50;2.40;;;;;;;;;;5024545;28;20220;-62
2022/09/13 06:01:58;;;;;;;2.92;2.78;;;;;;;;;;5019832;28;20213;-62
2022/09/13 06:04:25;;;;;;;3.13;2.85;;;;;;;;;;5023093;28;20216;-62
2022/09/13 06:06:52;;;;;;;3.05;2.83;;;;;;;;;;5024820;28;20587;-62
2022/09/13 06:09:19;;;;;;;3.13;2.83;;;;;;;;;;5023072;28;20331;-62
2022/09/13 06:11:48;;;;;;;2.80;2.53;;;;;;;;;;5029511;28;20300;-62
2022/09/13 06:14:15;;;;;;;3.93;3.07;;;;;;;;;;5030127;28;20291;-62
2022/09/13 06:16:42;;;;;;;4.78;3.35;;;;;;;;;;5030554;28;20220;-62
2022/09/13 06:19:09;;;;;;;4.10;3.25;;;;;;;;;;5013927;28;20316;-62
2022/09/13 06:21:36;;;;;;;3.13;2.92;;;;;;;;;;5026082;28;20617;-61
2022/09/13 06:24:04;;;;;;;5.13;2.97;;;;;;;;;;5021382;28;20264;-61
2022/09/13 06:26:31;;;;;;;4.47;3.38;;;;;;;;;;5010304;28;20508;-61
2022/09/13 06:29:00;;;;;;;3.30;3.10;;;;;;;;;;5021913;28;20221;-59
2022/09/13 06:31:28;;;;;;;3.75;3.40;;;;;;;;;;5010051;28;20201;-59
2022/09/13 06:33:59;;;;;;;4.30;3.90;;;;;;;;;;5020967;28;20675;-59
2022/09/13 06:36:26;;;;;;;3.08;2.88;;;;;;;;;;5015768;28;20223;-60
2022/09/13 06:38:53;;;;;;;3.67;3.20;;;;;;;;;;5010074;28;20631;-59
2022/09/13 06:41:22;;;;;;;3.58;3.22;;;;;;;;;;5008677;28;20222;-59
2022/09/13 06:43:53;;;;;;;3.53;3.20;;;;;;;;;;5009798;28;20423;-59
2022/09/13 06:46:21;;;;;;;4.93;3.58;;;;;;;;;;5009804;28;20240;-59
2022/09/13 06:48:48;;;;;;;4.32;4.00;;;;;;;;;;5009410;28;20303;-59
2022/09/13 06:51:17;;;;;;;4.50;3.80;;;;;;;;;;5009391;28;20704;-59
2022/09/13 06:53:44;;;;;;;4.68;3.78;;;;;;;;;;5009958;28;20224;-59
2022/09/13 06:56:12;;;;;;;4.15;3.75;;;;;;;;;;5017413;28;20659;-59
2022/09/13 06:58:40;;;;;;;4.45;3.95;;;;;;;;;;5019575;28;20232;-59
2022/09/13 07:01:09;;;;;;;6.22;4.28;;;;;;;;;;5014969;28;20210;-59
2022/09/13 07:03:37;;;;;;;4.88;4.18;;;;;;;;;;5010845;28;20209;-59
2022/09/13 07:06:08;;;;;;;5.28;4.60;;;;;;;;;;5029395;28;20212;-59
2022/09/13 07:08:36;;;;;;;4.15;3.75;;;;;;;;;;5017962;28;20764;-60
2022/09/13 07:11:03;;;;;;;9.95;4.72;;;;;;;;;;5026945;28;20294;-59
2022/09/13 07:13:30;;;;;;;4.53;4.13;;;;;;;;;;5023246;28;20229;-59
2022/09/13 07:15:57;;;;;;;7.43;4.18;;;;;;;;;;5012521;28;20205;-59
2022/09/13 07:18:24;;;;;;;5.32;4.70;;;;;;;;;;5017623;28;20544;-60
2022/09/13 07:20:52;;;;;;;4.95;4.00;;;;;;;;;;5021102;28;20213;-59
2022/09/13 07:23:19;;;;;;;5.90;4.20;;;;;;;;;;5022810;28;20200;-60
2022/09/13 07:25:54;;;;;;;6.20;4.22;;;;;;;;;;5017182;28;20240;-59
2022/09/13 07:28:21;;;;;;;4.70;4.22;;;;;;;;;;5009066;28;20199;-59
2022/09/13 07:30:48;;;;;;;6.75;4.47;;;;;;;;;;5020493;28;20202;-60
2022/09/13 07:33:15;;;;;;;5.40;4.22;;;;;;;;;;5011631;28;20213;-59
2022/09/13 07:35:42;;;;;;;4.68;3.47;;;;;;;;;;5012940;28;20238;-59
2022/09/13 07:38:11;;;;;;;4.05;3.13;;;;;;;;;;5010470;28;20220;-59
2022/09/13 07:40:38;;;;;;;4.20;3.85;;;;;;;;;;5014111;28;20196;-60
2022/09/13 07:43:05;;;;;;;5.65;3.95;;;;;;;;;;5027523;28;20204;-63
2022/09/13 07:45:33;;;;;;;4.45;4.03;;;;;;;;;;5029047;28;20240;-62
2022/09/13 07:48:00;;;;;;;4.32;3.88;;;;;;;;;;5021649;28;20204;-63
2022/09/13 07:50:27;;;;;;;6.63;4.22;;;;;;;;;;5021250;28;20242;-62
2022/09/13 07:52:54;;;;;;;4.65;4.28;;;;;;;;;;5022867;28;20209;-64
2022/09/13 07:55:23;;;;;;;4.53;4.13;;;;;;;;;;5009096;28;20209;-60
2022/09/13 07:57:50;;;;;;;5.40;4.10;;;;;;;;;;5012240;28;20208;-65
2022/09/13 08:00:17;;;;;;;7.53;4.13;;;;;;;;;;5021200;28;20200;-62
2022/09/13 08:02:44;;;;;;;4.60;4.20;;;;;;;;;;5026023;28;20215;-62
2022/09/13 08:05:13;;;;;;;4.85;4.10;;;;;;;;;;5024636;28;20204;-62
2022/09/13 08:07:40;;;;;;;5.78;3.97;;;;;;;;;;5008396;28;20209;-62
2022/09/13 08:10:07;;;;;;;5.13;4.28;;;;;;;;;;5015063;28;20232;-62
2022/09/13 08:12:35;;;;;;;4.72;4.07;;;;;;;;;;5026667;28;20212;-62
2022/09/13 08:15:09;;;;;;;4.22;3.83;;;;;;;;;;5021763;28;20224;-63
2022/09/13 08:17:36;;;;;;;4.15;3.58;;;;;;;;;;5014284;28;20331;-63
2022/09/13 08:20:03;;;;;;;5.85;3.88;;;;;;;;;;5021790;28;20663;-62
2022/09/13 08:22:30;;;;;;;3.92;3.63;;;;;;;;;;5015835;28;20223;-63
2022/09/13 08:24:57;;;;;;;4.65;3.67;;;;;;;;;;5013863;28;20233;-63
2022/09/13 08:27:24;;;;;;;5.72;3.55;;;;;;;;;;5015802;28;20232;-65
2022/09/13 08:29:53;;;;;;;4.35;3.13;;;;;;;;;;5020345;28;20233;-62
2022/09/13 08:32:20;;;;;;;4.05;3.55;;;;;;;;;;5030467;28;20261;-62
2022/09/13 08:34:47;;;;;;;4.15;3.63;;;;;;;;;;5024719;28;20205;-63
2022/09/13 08:37:14;;;;;;;4.18;3.67;;;;;;;;;;5012090;28;20213;-63
2022/09/13 08:39:41;;;;;;;3.88;3.58;;;;;;;;;;5013312;28;20917;-63
2022/09/13 08:42:16;;;;;;;4.07;3.67;;;;;;;;;;5019499;28;20216;-62
2022/09/13 08:44:45;;;;;;;4.78;3.67;;;;;;;;;;5013661;28;20209;-63
2022/09/13 08:47:27;;;;;;;4.45;3.33;;;;;;;;;;5028121;28;20663;-62
2022/09/13 08:49:58;;;;;;;3.42;3.22;;;;;;;;;;5011871;28;20228;-62
2022/09/13 08:52:30;;;;;;;4.72;3.88;;;;;;;;;;5022829;28;20231;-63
2022/09/13 08:54:57;;;;;;;4.03;3.72;;;;;;;;;;5011971;28;20239;-60
2022/09/13 08:57:27;;;;;;;3.83;3.53;;;;;;;;;;5014502;28;20213;-62
2022/09/13 08:59:59;;;;;;;4.00;3.70;;;;;;;;;;5020301;28;20212;-62
2022/09/13 09:02:37;;;;;;;3.60;3.33;;;;;;;;;;5011894;28;20220;-63
2022/09/13 09:05:06;;;;;;;4.78;3.78;;;;;;;;;;5013192;28;20259;-61
2022/09/13 09:07:36;;;;;;;3.67;3.40;;;;;;;;;;5015844;28;20616;-63
2022/09/13 09:10:06;;;;;;;3.55;3.25;;;;;;;;;;5018878;28;20324;-62
2022/09/13 09:12:37;;;;;;;5.00;3.60;;;;;;;;;;5011727;28;20212;-62
2022/09/13 09:15:07;;;;;;;3.85;3.47;;;;;;;;;;5023973;28;20208;-59
2022/09/13 09:17:40;;;;;;;4.57;3.92;;;;;;;;;;5011958;28;20233;-62
2022/09/13 09:20:10;;;;;;;5.38;4.20;;;;;;;;;;5020353;28;20718;-60
2022/09/13 09:22:37;;;;;;;5.03;3.35;;;;;;;;;;5031484;28;20220;-60
2022/09/13 09:25:04;;;;;;;4.63;4.15;;;;;;;;;;5030333;28;20232;-58
2022/09/13 09:27:32;;;;;;;4.70;3.88;;;;;;;;;;5021053;28;20233;-58
2022/09/13 09:30:00;;;;;;;6.78;4.43;;;;;;;;;;5012996;28;20244;-58
2022/09/13 09:32:42;;;;;;;4.18;3.88;;;;;;;;;;5011562;28;20698;-58
2022/09/13 09:35:17;;;;;;;5.45;3.72;;;;;;;;;;5030853;28;20208;-59
2022/09/13 09:37:46;;;;;;;4.05;3.75;;;;;;;;;;5031106;28;20218;-59
2022/09/13 09:40:16;;;;;;;3.83;3.53;;;;;;;;;;5031131;28;20212;-58
2022/09/13 09:42:44;;;;;;;4.57;4.15;;;;;;;;;;5030665;28;20295;-59
2022/09/13 09:45:29;;;;;;;5.90;4.10;;;;;;;;;;5030539;28;20243;-59
2022/09/13 09:47:57;;;;;;;4.90;4.40;;;;;;;;;;5019751;28;20707;-59
2022/09/13 09:50:27;;;;;;;5.72;4.05;;;;;;;;;;5010177;28;20232;-59
2022/09/13 09:52:57;;;;;;;4.53;4.03;;;;;;;;;;5016074;28;20220;-60
2022/09/13 09:55:27;;;;;;;4.63;4.15;;;;;;;;;;5030370;28;20216;-58
2022/09/13 09:57:56;;;;;;;4.88;4.28;;;;;;;;;;5020609;28;20209;-59
2022/09/13 10:00:24;;;;;;;4.93;3.90;;;;;;;;;;5016330;28;20216;-59
2022/09/13 10:02:53;;;;;;;4.70;4.30;;;;;;;;;;5015971;28;20224;-58
2022/09/13 10:05:21;;;;;;;5.30;4.20;;;;;;;;;;5009620;28;20212;-59
2022/09/13 10:07:54;;;;;;;7.47;4.53;;;;;;;;;;5025269;28;20234;-60
2022/09/13 10:10:23;;;;;;;6.53;4.22;;;;;;;;;;5010893;28;20283;-59
2022/09/13 10:12:51;;;;;;;4.97;4.30;;;;;;;;;;5023283;28;20201;-60
2022/09/13 10:15:19;;;;;;;7.22;4.43;;;;;;;;;;5009672;28;20217;-59
2022/09/13 10:18:01;;;;;;;4.70;4.28;;;;;;;;;;5020434;28;20225;-59
2022/09/13 10:20:28;;;;;;;4.35;3.95;;;;;;;;;;5029641;28;20619;-59
2022/09/13 10:23:19;;;;;;;7.03;4.70;;;;;;;;;;5014155;28;20213;-58
2022/09/13 10:25:56;;;;;;;4.20;3.90;;;;;;;;;;4995460;28;20607;-59
2022/09/13 10:28:24;;;;;;;4.43;4.07;;;;;;;;;;5010443;28;20243;-59
2022/09/13 10:30:54;;;;;;;4.75;4.00;;;;;;;;;;5010025;28;20239;-59
2022/09/13 10:33:32;;;;;;;4.80;4.40;;;;;;;;;;5009855;28;20216;-59
2022/09/13 10:36:01;;;;;;;5.80;4.32;;;;;;;;;;5009952;28;20209;-59
2022/09/13 10:38:31;;;;;;;5.28;4.78;;;;;;;;;;5009487;28;21019;-61
2022/09/13 10:41:00;;;;;;;4.85;4.32;;;;;;;;;;5012226;28;20882;-60
2022/09/13 10:43:28;;;;;;;10.50;4.22;;;;;;;;;;5020077;28;20201;-60
2022/09/13 10:45:56;;;;;;;5.53;5.03;;;;;;;;;;5010113;28;20221;-59
2022/09/13 10:48:24;;;;;;;7.45;5.15;;;;;;;;;;5009569;28;20748;-60
2022/09/13 10:51:01;;;;;;;5.00;4.60;;;;;;;;;;5018612;28;20236;-60
2022/09/13 10:53:33;;;;;;;5.30;4.78;;;;;;;;;;5011465;28;20216;-61
2022/09/13 10:56:01;;;;;;;5.13;4.70;;;;;;;;;;5028943;28;20212;-61
2022/09/13 10:58:29;;;;;;;5.25;4.57;;;;;;;;;;5029253;28;20725;-62
2022/09/13 11:01:14;;;;;;;11.48;5.05;;;;;;;;;;5028077;28;20196;-59
2022/09/13 11:03:56;;;;;;;7.68;5.10;;;;;;;;;;5029058;28;20220;-59
2022/09/13 11:06:26;;;;;;;5.25;4.75;;;;;;;;;;5014680;28;20216;-59
2022/09/13 11:08:57;;;;;;;5.78;4.60;;;;;;;;;;5009808;28;20212;-59
2022/09/13 11:11:30;;;;;;;4.57;4.18;;;;;;;;;;5013646;28;20320;-59
2022/09/13 11:14:02;;;;;;;4.65;4.25;;;;;;;;;;5009884;28;20220;-61
2022/09/13 11:16:34;;;;;;;8.75;4.90;;;;;;;;;;5012912;28;20295;-59
2022/09/13 11:19:05;;;;;;;11.88;5.50;;;;;;;;;;5009826;28;20229;-59
2022/09/13 11:21:38;;;;;;;9.93;5.65;;;;;;;;;;5004187;28;20209;-59
2022/09/13 11:24:13;;;;;;;7.40;5.63;;;;;;;;;;5020818;28;20247;-58
2022/09/13 11:26:48;;;;;;;7.88;5.20;;;;;;;;;;5027135;28;20549;-58
2022/09/13 11:29:22;;;;;;;9.45;5.25;;;;;;;;;;5011950;28;20694;-59
2022/09/13 11:31:58;;;;;;;8.27;4.78;;;;;;;;;;5008104;28;20229;-59
2022/09/13 11:34:32;;;;;;;5.63;4.30;;;;;;;;;;5009522;28;20267;-59
2022/09/13 11:37:13;;;;;;;4.70;4.30;;;;;;;;;;5009060;28;20239;-59
2022/09/13 11:39:43;;;;;;;8.95;5.30;;;;;;;;;;5009481;28;20197;-59
2022/09/13 11:42:19;;;;;;;5.07;4.68;;;;;;;;;;5013163;28;20224;-59
2022/09/13 11:44:52;;;;;;;5.75;4.95;;;;;;;;;;5008405;28;20213;-59
2022/09/13 11:47:26;;;;;;;5.00;4.50;;;;;;;;;;5010796;28;20209;-62
2022/09/13 11:50:02;;;;;;;6.00;4.97;;;;;;;;;;5014646;28;20208;-59
2022/09/13 11:52:34;;;;;;;5.13;4.68;;;;;;;;;;5027542;28;20196;-58
2022/09/13 11:55:07;;;;;;;5.53;4.35;;;;;;;;;;5017532;28;20212;-59
2022/09/13 11:57:36;;;;;;;4.80;4.40;;;;;;;;;;5016420;28;20290;-59
2022/09/13 12:00:05;;;;;;;4.82;4.45;;;;;;;;;;5025599;28;20208;-59
2022/09/13 12:02:37;;;;;;;4.47;4.00;;;;;;;;;;5012662;28;20216;-59
2022/09/13 12:05:07;;;;;;;8.07;4.85;;;;;;;;;;5014096;28;20201;-59
2022/09/13 12:07:36;;;;;;;4.68;4.22;;;;;;;;;;5008204;28;20224;-59
2022/09/13 12:10:06;;;;;;;5.07;4.30;;;;;;;;;;5022681;28;20204;-59
2022/09/13 12:12:36;;;;;;;8.77;4.80;;;;;;;;;;5022227;28;20636;-59
2022/09/13 12:15:06;;;;;;;5.70;5.20;;;;;;;;;;5015488;28;20205;-60
2022/09/13 12:17:36;;;;;;;7.25;5.28;;;;;;;;;;5011162;28;20225;-61
2022/09/13 12:20:05;;;;;;;13.50;7.90;;;;;;;;;;5012939;28;20245;-60
2022/09/13 12:22:34;;;;;;;5.28;4.72;;;;;;;;;;5017626;28;20667;-60
2022/09/13 12:25:04;;;;;;;4.93;4.50;;;;;;;;;;5025936;28;20266;-60
2022/09/13 12:27:34;;;;;;;6.43;4.63;;;;;;;;;;5014410;28;20216;-60
2022/09/13 12:30:05;;;;;;;6.53;4.97;;;;;;;;;;5007366;28;20220;-60
2022/09/13 12:32:32;;;;;;;5.43;4.57;;;;;;;;;;5007951;28;20581;-59
2022/09/13 12:35:02;;;;;;;7.20;4.70;;;;;;;;;;5007734;28;20240;-60
2022/09/13 12:37:46;;;;;;;5.18;4.68;;;;;;;;;;5007518;28;20215;-60
2022/09/13 12:40:38;;;;;;;4.45;4.10;;;;;;;;;;5007523;28;20215;-60
2022/09/13 12:43:24;;;;;;;7.63;4.50;;;;;;;;;;5007457;28;21056;-60
2022/09/13 12:46:02;;;;;;;5.07;4.53;;;;;;;;;;5007740;28;20209;-59
2022/09/13 12:48:39;;;;;;;4.68;4.38;;;;;;;;;;5007556;28;20303;-60
2022/09/13 12:51:14;;;;;;;5.28;4.78;;;;;;;;;;5007839;28;20229;-60
2022/09/13 12:54:01;;;;;;;7.25;5.60;;;;;;;;;;5007563;28;20219;-60
2022/09/13 12:56:34;;;;;;;5.30;4.90;;;;;;;;;;5007366;28;20216;-60
2022/09/13 12:59:09;;;;;;;5.68;4.43;;;;;;;;;;5007128;28;20216;-60
2022/09/13 13:01:37;;;;;;;5.35;4.78;;;;;;;;;;5008842;28;20215;-61
2022/09/13 13:04:09;;;;;;;5.78;4.63;;;;;;;;;;5012881;28;20201;-60
2022/09/13 13:06:38;;;;;;;4.97;4.55;;;;;;;;;;5028254;28;20224;-61
2022/09/13 13:09:07;;;;;;;5.93;5.25;;;;;;;;;;5013539;28;20216;-60
2022/09/13 13:11:46;;;;;;;5.00;4.57;;;;;;;;;;5013228;28;20224;-59
2022/09/13 13:14:30;;;;;;;5.68;4.15;;;;;;;;;;5020391;28;20216;-59
2022/09/13 13:17:12;;;;;;;5.82;4.60;;;;;;;;;;5011494;28;20204;-59
2022/09/13 13:19:40;;;;;;;4.93;4.55;;;;;;;;;;5019591;28;20209;-60
2022/09/13 13:22:22;;;;;;;7.40;5.43;;;;;;;;;;5028401;28;20201;-59
2022/09/13 13:24:49;;;;;;;5.22;4.78;;;;;;;;;;5030272;28;20267;-59
2022/09/13 13:27:35;;;;;;;5.75;5.07;;;;;;;;;;5020532;28;20588;-60
2022/09/13 13:30:20;;;;;;;5.65;5.03;;;;;;;;;;5011261;28;20217;-60
2022/09/13 13:33:02;;;;;;;6.65;5.22;;;;;;;;;;5011169;28;20205;-60
2022/09/13 13:35:32;;;;;;;5.70;4.97;;;;;;;;;;5010855;28;20672;-60
2022/09/13 13:38:14;;;;;;;4.55;4.15;;;;;;;;;;5011903;28;20292;-60
2022/09/13 13:40:41;;;;;;;5.63;4.90;;;;;;;;;;5012255;28;20224;-60
2022/09/13 13:43:29;;;;;;;6.10;4.75;;;;;;;;;;5025661;28;20209;-60
2022/09/13 13:45:57;;;;;;;5.75;4.95;;;;;;;;;;5019131;28;20720;-60
2022/09/13 13:48:35;;;;;;;6.07;5.13;;;;;;;;;;5028969;28;20209;-60
2022/09/13 13:51:32;;;;;;;7.00;4.63;;;;;;;;;;5026281;28;20216;-60
2022/09/13 13:54:03;;;;;;;5.32;4.72;;;;;;;;;;5011341;28;20232;-60
2022/09/13 13:56:35;;;;;;;5.97;5.00;;;;;;;;;;5025668;28;20221;-60
2022/09/13 13:59:05;;;;;;;6.00;4.65;;;;;;;;;;5009452;28;20243;-60
2022/09/13 14:01:34;;;;;;;5.20;4.70;;;;;;;;;;5023854;28;20197;-60
2022/09/13 14:04:11;;;;;;;6.15;4.72;;;;;;;;;;5009825;28;20217;-60
2022/09/13 14:06:42;;;;;;;7.22;5.25;;;;;;;;;;5010520;28;20603;-60
2022/09/13 14:09:16;;;;;;;5.18;4.72;;;;;;;;;;5010041;28;20213;-60
2022/09/13 14:11:48;;;;;;;4.45;3.88;;;;;;;;;;5009784;28;20220;-60
2022/09/13 14:14:33;;;;;;;4.35;4.05;;;;;;;;;;5013578;28;20507;-60
2022/09/13 14:17:22;;;;;;;6.70;4.60;;;;;;;;;;5009488;28;20220;-60
2022/09/13 14:19:52;;;;;;;4.38;4.05;;;;;;;;;;5014539;28;20215;-58
2022/09/13 14:22:20;;;;;;;7.43;4.93;;;;;;;;;;5015878;28;20698;-59
2022/09/13 14:24:49;;;;;;;5.28;4.47;;;;;;;;;;5009203;28;20232;-59
2022/09/13 14:27:21;;;;;;;5.22;4.72;;;;;;;;;;5006847;28;20707;-59
2022/09/13 14:29:49;;;;;;;4.85;4.45;;;;;;;;;;5009894;28;20217;-59
2022/09/13 14:32:18;;;;;;;4.50;4.18;;;;;;;;;;5008963;28;20251;-60
2022/09/13 14:34:52;;;;;;;4.70;3.83;;;;;;;;;;5009249;28;20209;-59
2022/09/13 14:37:20;;;;;;;3.38;3.17;;;;;;;;;;5008780;28;20213;-59
2022/09/13 14:39:59;;;;;;;4.60;4.20;;;;;;;;;;5014699;28;20201;-60
2022/09/13 14:42:26;;;;;;;4.65;4.25;;;;;;;;;;5009386;28;20215;-61
2022/09/13 14:44:54;;;;;;;6.60;4.50;;;;;;;;;;5015655;28;20212;-60
2022/09/13 14:47:26;;;;;;;4.75;4.35;;;;;;;;;;5028929;28;20215;-60
2022/09/13 14:49:56;;;;;;;4.80;4.38;;;;;;;;;;5016677;28;20317;-60
2022/09/13 14:52:25;;;;;;;4.85;4.43;;;;;;;;;;5013522;28;20225;-59
2022/09/13 14:54:53;;;;;;;4.88;4.38;;;;;;;;;;5021165;28;20266;-59
2022/09/13 14:57:27;;;;;;;4.57;4.28;;;;;;;;;;5013026;28;20215;-59
2022/09/13 14:59:56;;;;;;;7.38;4.70;;;;;;;;;;5010569;28;20248;-60
2022/09/13 15:02:24;;;;;;;6.20;4.57;;;;;;;;;;5027915;28;20295;-59